sensor_id;sensor_type;location;lat;lon;timestamp;P1;durP1;ratioP1;P2;durP2;ratioP2
61460;SDS011;47325;50.506;4.472;2022-12-18T00:02:44;36.00;;;18.60;;
61460;SDS011;47325;50.506;4.472;2022-12-18T00:08:28;33.70;;;17.30;;
61460;SDS011;47325;50.506;4.472;2022-12-18T00:14:11;33.10;;;17.30;;
61460;SDS011;47325;50.506;4.472;2022-12-18T00:19:54;29.90;;;16.60;;
61460;SDS011;47325;50.506;4.472;2022-12-18T00:25:37;28.30;;;15.70;;
61460;SDS011;47325;50.506;4.472;2022-12-18T00:31:22;29.10;;;15.40;;
61460;SDS011;47325;50.506;4.472;2022-12-18T00:37:06;28.90;;;16.00;;
61460;SDS011;47325;50.506;4.472;2022-12-18T00:42:49;29.00;;;14.90;;
61460;SDS011;47325;50.506;4.472;2022-12-18T00:48:32;26.00;;;14.00;;
61460;SDS011;47325;50.506;4.472;2022-12-18T00:54:16;25.80;;;14.10;;
61460;SDS011;47325;50.506;4.472;2022-12-18T00:59:59;27.20;;;14.10;;
61460;SDS011;47325;50.506;4.472;2022-12-18T01:05:42;24.10;;;13.10;;
61460;SDS011;47325;50.506;4.472;2022-12-18T01:11:25;24.60;;;13.00;;
61460;SDS011;47325;50.506;4.472;2022-12-18T01:17:08;23.80;;;12.30;;
61460;SDS011;47325;50.506;4.472;2022-12-18T01:22:54;22.50;;;12.20;;
61460;SDS011;47325;50.506;4.472;2022-12-18T01:28:37;21.70;;;12.30;;
61460;SDS011;47325;50.506;4.472;2022-12-18T01:34:22;21.80;;;11.30;;
61460;SDS011;47325;50.506;4.472;2022-12-18T01:40:06;22.00;;;11.50;;
61460;SDS011;47325;50.506;4.472;2022-12-18T01:45:50;19.70;;;10.50;;
61460;SDS011;47325;50.506;4.472;2022-12-18T01:51:33;20.80;;;10.70;;
61460;SDS011;47325;50.506;4.472;2022-12-18T01:57:16;20.80;;;10.70;;
61460;SDS011;47325;50.506;4.472;2022-12-18T02:02:59;20.00;;;10.10;;
61460;SDS011;47325;50.506;4.472;2022-12-18T02:08:43;16.80;;;8.90;;
61460;SDS011;47325;50.506;4.472;2022-12-18T02:14:31;17.10;;;9.40;;
61460;SDS011;47325;50.506;4.472;2022-12-18T02:20:20;15.70;;;9.10;;
61460;SDS011;47325;50.506;4.472;2022-12-18T02:26:09;16.70;;;8.90;;
61460;SDS011;47325;50.506;4.472;2022-12-18T02:31:55;17.20;;;9.20;;
61460;SDS011;47325;50.506;4.472;2022-12-18T02:37:39;15.50;;;8.90;;
61460;SDS011;47325;50.506;4.472;2022-12-18T02:43:24;13.80;;;8.20;;
61460;SDS011;47325;50.506;4.472;2022-12-18T02:49:16;15.60;;;8.40;;
61460;SDS011;47325;50.506;4.472;2022-12-18T02:55:03;14.70;;;8.30;;
61460;SDS011;47325;50.506;4.472;2022-12-18T03:00:51;15.30;;;8.30;;
61460;SDS011;47325;50.506;4.472;2022-12-18T03:06:37;13.70;;;7.90;;
61460;SDS011;47325;50.506;4.472;2022-12-18T03:12:24;15.20;;;8.00;;
61460;SDS011;47325;50.506;4.472;2022-12-18T03:18:12;14.00;;;7.40;;
61460;SDS011;47325;50.506;4.472;2022-12-18T03:23:55;13.20;;;7.20;;
61460;SDS011;47325;50.506;4.472;2022-12-18T03:29:40;14.60;;;7.50;;
61460;SDS011;47325;50.506;4.472;2022-12-18T03:35:27;11.90;;;6.70;;
61460;SDS011;47325;50.506;4.472;2022-12-18T03:41:12;12.30;;;7.10;;
61460;SDS011;47325;50.506;4.472;2022-12-18T03:46:58;13.50;;;6.80;;
61460;SDS011;47325;50.506;4.472;2022-12-18T03:52:46;11.40;;;7.00;;
61460;SDS011;47325;50.506;4.472;2022-12-18T03:58:32;13.70;;;6.40;;
61460;SDS011;47325;50.506;4.472;2022-12-18T04:04:18;13.40;;;6.40;;
61460;SDS011;47325;50.506;4.472;2022-12-18T04:10:02;9.50;;;5.60;;
61460;SDS011;47325;50.506;4.472;2022-12-18T04:15:46;11.90;;;6.40;;
61460;SDS011;47325;50.506;4.472;2022-12-18T04:21:29;10.00;;;5.80;;
61460;SDS011;47325;50.506;4.472;2022-12-18T04:27:12;10.10;;;5.70;;
61460;SDS011;47325;50.506;4.472;2022-12-18T04:32:55;9.60;;;5.80;;
61460;SDS011;47325;50.506;4.472;2022-12-18T04:38:38;9.50;;;5.60;;
61460;SDS011;47325;50.506;4.472;2022-12-18T04:44:21;12.80;;;6.30;;
61460;SDS011;47325;50.506;4.472;2022-12-18T04:50:04;11.10;;;6.20;;
61460;SDS011;47325;50.506;4.472;2022-12-18T04:55:47;13.30;;;6.70;;
61460;SDS011;47325;50.506;4.472;2022-12-18T05:01:30;9.10;;;5.90;;
61460;SDS011;47325;50.506;4.472;2022-12-18T05:07:17;12.20;;;6.50;;
61460;SDS011;47325;50.506;4.472;2022-12-18T05:13:00;11.60;;;6.30;;
61460;SDS011;47325;50.506;4.472;2022-12-18T05:18:43;9.00;;;5.30;;
61460;SDS011;47325;50.506;4.472;2022-12-18T05:24:26;10.10;;;5.50;;
61460;SDS011;47325;50.506;4.472;2022-12-18T05:30:11;9.70;;;5.80;;
61460;SDS011;47325;50.506;4.472;2022-12-18T05:35:55;9.10;;;5.40;;
61460;SDS011;47325;50.506;4.472;2022-12-18T05:41:38;9.40;;;5.50;;
61460;SDS011;47325;50.506;4.472;2022-12-18T05:47:23;8.40;;;5.30;;
61460;SDS011;47325;50.506;4.472;2022-12-18T05:53:06;8.90;;;5.20;;
61460;SDS011;47325;50.506;4.472;2022-12-18T05:58:51;8.50;;;5.10;;
61460;SDS011;47325;50.506;4.472;2022-12-18T06:04:34;8.70;;;5.20;;
61460;SDS011;47325;50.506;4.472;2022-12-18T06:10:16;8.00;;;5.00;;
61460;SDS011;47325;50.506;4.472;2022-12-18T06:15:59;9.60;;;5.00;;
61460;SDS011;47325;50.506;4.472;2022-12-18T06:21:44;10.20;;;5.20;;
61460;SDS011;47325;50.506;4.472;2022-12-18T06:27:26;8.70;;;5.00;;
61460;SDS011;47325;50.506;4.472;2022-12-18T06:33:09;8.00;;;4.90;;
61460;SDS011;47325;50.506;4.472;2022-12-18T06:38:52;9.50;;;5.40;;
61460;SDS011;47325;50.506;4.472;2022-12-18T06:44:35;8.40;;;4.70;;
61460;SDS011;47325;50.506;4.472;2022-12-18T06:50:18;8.10;;;4.70;;
61460;SDS011;47325;50.506;4.472;2022-12-18T06:56:04;9.40;;;5.00;;
61460;SDS011;47325;50.506;4.472;2022-12-18T07:01:52;8.40;;;4.80;;
61460;SDS011;47325;50.506;4.472;2022-12-18T07:07:36;9.50;;;4.70;;
61460;SDS011;47325;50.506;4.472;2022-12-18T07:13:19;7.90;;;4.60;;
61460;SDS011;47325;50.506;4.472;2022-12-18T07:19:02;8.20;;;4.70;;
61460;SDS011;47325;50.506;4.472;2022-12-18T07:24:45;8.40;;;4.70;;
61460;SDS011;47325;50.506;4.472;2022-12-18T07:30:28;9.80;;;5.20;;
61460;SDS011;47325;50.506;4.472;2022-12-18T07:36:11;8.40;;;4.50;;
61460;SDS011;47325;50.506;4.472;2022-12-18T07:41:54;9.20;;;5.10;;
61460;SDS011;47325;50.506;4.472;2022-12-18T07:47:37;8.30;;;4.80;;
61460;SDS011;47325;50.506;4.472;2022-12-18T07:53:20;9.50;;;4.80;;
61460;SDS011;47325;50.506;4.472;2022-12-18T07:59:03;8.30;;;4.50;;
61460;SDS011;47325;50.506;4.472;2022-12-18T08:04:46;9.50;;;5.20;;
61460;SDS011;47325;50.506;4.472;2022-12-18T08:10:29;9.20;;;4.90;;
61460;SDS011;47325;50.506;4.472;2022-12-18T08:16:12;10.20;;;5.20;;
61460;SDS011;47325;50.506;4.472;2022-12-18T08:21:55;7.70;;;4.80;;
61460;SDS011;47325;50.506;4.472;2022-12-18T08:27:39;10.50;;;5.20;;
61460;SDS011;47325;50.506;4.472;2022-12-18T08:33:22;10.40;;;5.70;;
61460;SDS011;47325;50.506;4.472;2022-12-18T08:39:05;10.00;;;5.50;;
61460;SDS011;47325;50.506;4.472;2022-12-18T08:44:48;10.60;;;5.70;;
61460;SDS011;47325;50.506;4.472;2022-12-18T08:50:31;8.40;;;5.20;;
61460;SDS011;47325;50.506;4.472;2022-12-18T08:56:14;9.30;;;5.50;;
61460;SDS011;47325;50.506;4.472;2022-12-18T09:01:57;10.00;;;5.40;;
61460;SDS011;47325;50.506;4.472;2022-12-18T09:07:41;10.00;;;5.40;;
61460;SDS011;47325;50.506;4.472;2022-12-18T09:13:24;11.30;;;6.20;;
61460;SDS011;47325;50.506;4.472;2022-12-18T09:19:07;10.70;;;5.80;;
61460;SDS011;47325;50.506;4.472;2022-12-18T09:24:50;11.00;;;6.30;;
61460;SDS011;47325;50.506;4.472;2022-12-18T09:30:33;11.00;;;5.90;;
61460;SDS011;47325;50.506;4.472;2022-12-18T09:36:18;11.90;;;6.60;;
61460;SDS011;47325;50.506;4.472;2022-12-18T09:42:04;11.90;;;6.10;;
61460;SDS011;47325;50.506;4.472;2022-12-18T09:47:47;11.20;;;6.10;;
61460;SDS011;47325;50.506;4.472;2022-12-18T09:53:32;10.70;;;6.20;;
61460;SDS011;47325;50.506;4.472;2022-12-18T09:59:20;11.70;;;6.20;;
61460;SDS011;47325;50.506;4.472;2022-12-18T10:05:10;12.40;;;6.30;;
61460;SDS011;47325;50.506;4.472;2022-12-18T10:10:56;10.80;;;6.70;;
61460;SDS011;47325;50.506;4.472;2022-12-18T10:16:43;12.70;;;6.80;;
61460;SDS011;47325;50.506;4.472;2022-12-18T10:22:35;13.10;;;7.30;;
61460;SDS011;47325;50.506;4.472;2022-12-18T10:28:23;12.50;;;7.40;;
61460;SDS011;47325;50.506;4.472;2022-12-18T10:34:07;15.40;;;7.60;;
61460;SDS011;47325;50.506;4.472;2022-12-18T10:40:04;14.30;;;7.50;;
61460;SDS011;47325;50.506;4.472;2022-12-18T10:45:40;14.60;;;7.70;;
61460;SDS011;47325;50.506;4.472;2022-12-18T10:51:23;14.00;;;7.90;;
61460;SDS011;47325;50.506;4.472;2022-12-18T10:57:27;13.60;;;7.90;;
61460;SDS011;47325;50.506;4.472;2022-12-18T11:03:07;15.10;;;8.20;;
61460;SDS011;47325;50.506;4.472;2022-12-18T11:09:01;15.30;;;8.00;;
61460;SDS011;47325;50.506;4.472;2022-12-18T11:14:54;14.30;;;7.70;;
61460;SDS011;47325;50.506;4.472;2022-12-18T11:20:38;14.40;;;8.20;;
61460;SDS011;47325;50.506;4.472;2022-12-18T11:26:21;20.70;;;9.80;;
61460;SDS011;47325;50.506;4.472;2022-12-18T11:32:27;15.80;;;8.80;;
61460;SDS011;47325;50.506;4.472;2022-12-18T11:38:10;17.10;;;8.50;;
61460;SDS011;47325;50.506;4.472;2022-12-18T11:43:55;20.00;;;8.70;;
61460;SDS011;47325;50.506;4.472;2022-12-18T11:49:39;16.20;;;8.80;;
61460;SDS011;47325;50.506;4.472;2022-12-18T11:55:25;17.50;;;9.00;;
61460;SDS011;47325;50.506;4.472;2022-12-18T12:01:13;15.70;;;9.10;;
61460;SDS011;47325;50.506;4.472;2022-12-18T12:07:00;35.20;;;15.90;;
61460;SDS011;47325;50.506;4.472;2022-12-18T12:12:51;36.50;;;17.50;;
61460;SDS011;47325;50.506;4.472;2022-12-18T12:18:39;32.70;;;15.80;;
61460;SDS011;47325;50.506;4.472;2022-12-18T12:24:29;30.80;;;15.70;;
61460;SDS011;47325;50.506;4.472;2022-12-18T12:30:18;30.00;;;14.20;;
61460;SDS011;47325;50.506;4.472;2022-12-18T12:36:04;31.30;;;14.60;;
61460;SDS011;47325;50.506;4.472;2022-12-18T12:41:48;28.30;;;14.80;;
61460;SDS011;47325;50.506;4.472;2022-12-18T12:47:32;26.40;;;14.70;;
61460;SDS011;47325;50.506;4.472;2022-12-18T12:53:21;28.80;;;14.10;;
61460;SDS011;47325;50.506;4.472;2022-12-18T12:59:08;24.80;;;13.60;;
61460;SDS011;47325;50.506;4.472;2022-12-18T13:04:56;26.00;;;13.30;;
61460;SDS011;47325;50.506;4.472;2022-12-18T13:10:41;25.90;;;13.30;;
61460;SDS011;47325;50.506;4.472;2022-12-18T13:16:26;25.10;;;13.50;;
61460;SDS011;47325;50.506;4.472;2022-12-18T13:22:12;23.30;;;12.40;;
61460;SDS011;47325;50.506;4.472;2022-12-18T13:28:06;24.10;;;12.50;;
61460;SDS011;47325;50.506;4.472;2022-12-18T13:33:50;22.00;;;12.00;;
61460;SDS011;47325;50.506;4.472;2022-12-18T13:39:53;24.80;;;12.60;;
61460;SDS011;47325;50.506;4.472;2022-12-18T13:45:43;22.90;;;12.30;;
61460;SDS011;47325;50.506;4.472;2022-12-18T13:51:32;24.10;;;12.90;;
61460;SDS011;47325;50.506;4.472;2022-12-18T14:03:19;25.00;;;12.60;;
61460;SDS011;47325;50.506;4.472;2022-12-18T14:09:05;24.30;;;12.50;;
61460;SDS011;47325;50.506;4.472;2022-12-18T14:14:57;24.90;;;12.30;;
61460;SDS011;47325;50.506;4.472;2022-12-18T14:20:51;22.70;;;12.30;;
61460;SDS011;47325;50.506;4.472;2022-12-18T14:26:35;21.40;;;11.90;;
61460;SDS011;47325;50.506;4.472;2022-12-18T14:32:18;24.20;;;12.30;;
61460;SDS011;47325;50.506;4.472;2022-12-18T14:38:15;22.60;;;11.80;;
61460;SDS011;47325;50.506;4.472;2022-12-18T14:44:05;23.50;;;12.00;;
61460;SDS011;47325;50.506;4.472;2022-12-18T14:49:48;22.00;;;11.90;;
61460;SDS011;47325;50.506;4.472;2022-12-18T14:55:31;23.30;;;12.00;;
61460;SDS011;47325;50.506;4.472;2022-12-18T15:01:21;23.40;;;11.80;;
61460;SDS011;47325;50.506;4.472;2022-12-18T15:07:07;22.90;;;12.20;;
61460;SDS011;47325;50.506;4.472;2022-12-18T15:13:05;22.20;;;11.90;;
61460;SDS011;47325;50.506;4.472;2022-12-18T15:18:41;21.40;;;11.70;;
61460;SDS011;47325;50.506;4.472;2022-12-18T15:24:26;23.60;;;12.20;;
61460;SDS011;47325;50.506;4.472;2022-12-18T15:30:23;21.80;;;11.90;;
61460;SDS011;47325;50.506;4.472;2022-12-18T15:36:09;22.00;;;11.70;;
61460;SDS011;47325;50.506;4.472;2022-12-18T15:41:54;23.90;;;12.40;;
61460;SDS011;47325;50.506;4.472;2022-12-18T15:47:38;21.80;;;11.30;;
61460;SDS011;47325;50.506;4.472;2022-12-18T15:53:22;21.90;;;11.50;;
61460;SDS011;47325;50.506;4.472;2022-12-18T15:59:07;25.40;;;12.20;;
61460;SDS011;47325;50.506;4.472;2022-12-18T16:04:53;20.90;;;11.70;;
61460;SDS011;47325;50.506;4.472;2022-12-18T16:10:35;21.60;;;11.60;;
61460;SDS011;47325;50.506;4.472;2022-12-18T16:16:19;21.70;;;11.50;;
61460;SDS011;47325;50.506;4.472;2022-12-18T16:22:08;21.20;;;11.40;;
61460;SDS011;47325;50.506;4.472;2022-12-18T16:27:57;20.60;;;10.50;;
61460;SDS011;47325;50.506;4.472;2022-12-18T16:33:41;22.00;;;11.10;;
61460;SDS011;47325;50.506;4.472;2022-12-18T16:39:25;20.30;;;11.30;;
61460;SDS011;47325;50.506;4.472;2022-12-18T16:45:09;21.20;;;10.60;;
61460;SDS011;47325;50.506;4.472;2022-12-18T16:50:53;22.50;;;10.90;;
61460;SDS011;47325;50.506;4.472;2022-12-18T16:56:41;20.80;;;10.90;;
61460;SDS011;47325;50.506;4.472;2022-12-18T17:02:25;19.90;;;10.70;;
61460;SDS011;47325;50.506;4.472;2022-12-18T17:08:10;19.90;;;10.60;;
61460;SDS011;47325;50.506;4.472;2022-12-18T17:13:53;20.60;;;10.80;;
61460;SDS011;47325;50.506;4.472;2022-12-18T17:19:39;20.50;;;10.20;;
61460;SDS011;47325;50.506;4.472;2022-12-18T17:25:22;20.70;;;10.30;;
61460;SDS011;47325;50.506;4.472;2022-12-18T17:31:13;21.20;;;10.80;;
61460;SDS011;47325;50.506;4.472;2022-12-18T17:36:58;20.30;;;10.50;;
61460;SDS011;47325;50.506;4.472;2022-12-18T17:42:42;20.60;;;10.40;;
61460;SDS011;47325;50.506;4.472;2022-12-18T17:48:25;19.00;;;10.40;;
61460;SDS011;47325;50.506;4.472;2022-12-18T17:54:08;20.80;;;10.20;;
61460;SDS011;47325;50.506;4.472;2022-12-18T17:59:52;18.30;;;9.90;;
61460;SDS011;47325;50.506;4.472;2022-12-18T18:05:36;19.20;;;10.20;;
61460;SDS011;47325;50.506;4.472;2022-12-18T18:11:20;19.90;;;10.40;;
61460;SDS011;47325;50.506;4.472;2022-12-18T18:17:04;20.10;;;10.20;;
61460;SDS011;47325;50.506;4.472;2022-12-18T18:22:47;18.70;;;10.30;;
61460;SDS011;47325;50.506;4.472;2022-12-18T18:28:30;21.60;;;10.70;;
61460;SDS011;47325;50.506;4.472;2022-12-18T18:34:15;22.60;;;10.90;;
61460;SDS011;47325;50.506;4.472;2022-12-18T18:40:01;18.50;;;9.80;;
61460;SDS011;47325;50.506;4.472;2022-12-18T18:45:44;19.50;;;10.20;;
61460;SDS011;47325;50.506;4.472;2022-12-18T18:51:30;18.40;;;10.10;;
61460;SDS011;47325;50.506;4.472;2022-12-18T18:57:17;20.50;;;10.30;;
61460;SDS011;47325;50.506;4.472;2022-12-18T19:03:10;21.30;;;10.60;;
61460;SDS011;47325;50.506;4.472;2022-12-18T19:08:54;19.70;;;10.00;;
61460;SDS011;47325;50.506;4.472;2022-12-18T19:14:37;21.30;;;10.60;;
61460;SDS011;47325;50.506;4.472;2022-12-18T19:20:20;20.20;;;10.60;;
61460;SDS011;47325;50.506;4.472;2022-12-18T19:26:04;17.40;;;10.00;;
61460;SDS011;47325;50.506;4.472;2022-12-18T19:32:07;18.00;;;10.30;;
61460;SDS011;47325;50.506;4.472;2022-12-18T19:37:52;20.30;;;10.60;;
61460;SDS011;47325;50.506;4.472;2022-12-18T19:43:35;18.00;;;9.70;;
61460;SDS011;47325;50.506;4.472;2022-12-18T19:49:19;18.80;;;9.60;;
61460;SDS011;47325;50.506;4.472;2022-12-18T19:55:03;17.40;;;9.60;;
61460;SDS011;47325;50.506;4.472;2022-12-18T20:00:48;18.40;;;9.60;;
61460;SDS011;47325;50.506;4.472;2022-12-18T20:06:32;16.70;;;9.10;;
61460;SDS011;47325;50.506;4.472;2022-12-18T20:12:15;19.10;;;10.30;;
61460;SDS011;47325;50.506;4.472;2022-12-18T20:17:59;18.30;;;9.70;;
61460;SDS011;47325;50.506;4.472;2022-12-18T20:23:43;19.40;;;9.80;;
61460;SDS011;47325;50.506;4.472;2022-12-18T20:29:26;15.80;;;8.80;;
61460;SDS011;47325;50.506;4.472;2022-12-18T20:35:09;15.40;;;8.70;;
61460;SDS011;47325;50.506;4.472;2022-12-18T20:40:53;16.40;;;8.70;;
61460;SDS011;47325;50.506;4.472;2022-12-18T20:46:36;17.60;;;9.30;;
61460;SDS011;47325;50.506;4.472;2022-12-18T20:52:19;15.90;;;9.10;;
61460;SDS011;47325;50.506;4.472;2022-12-18T20:58:05;18.60;;;9.10;;
61460;SDS011;47325;50.506;4.472;2022-12-18T21:03:49;16.30;;;9.00;;
61460;SDS011;47325;50.506;4.472;2022-12-18T21:09:32;18.60;;;9.40;;
61460;SDS011;47325;50.506;4.472;2022-12-18T21:15:19;16.70;;;8.50;;
61460;SDS011;47325;50.506;4.472;2022-12-18T21:21:10;15.20;;;8.60;;
61460;SDS011;47325;50.506;4.472;2022-12-18T21:26:54;17.80;;;9.10;;
61460;SDS011;47325;50.506;4.472;2022-12-18T21:32:39;18.40;;;8.80;;
61460;SDS011;47325;50.506;4.472;2022-12-18T21:38:22;17.30;;;8.50;;
61460;SDS011;47325;50.506;4.472;2022-12-18T21:44:05;17.10;;;8.80;;
61460;SDS011;47325;50.506;4.472;2022-12-18T21:49:48;15.90;;;8.70;;
61460;SDS011;47325;50.506;4.472;2022-12-18T21:55:32;17.00;;;8.60;;
61460;SDS011;47325;50.506;4.472;2022-12-18T22:01:14;16.00;;;8.10;;
61460;SDS011;47325;50.506;4.472;2022-12-18T22:06:58;15.50;;;7.70;;
61460;SDS011;47325;50.506;4.472;2022-12-18T22:12:41;16.30;;;8.10;;
61460;SDS011;47325;50.506;4.472;2022-12-18T22:18:34;18.10;;;8.90;;
61460;SDS011;47325;50.506;4.472;2022-12-18T22:24:17;16.30;;;7.90;;
61460;SDS011;47325;50.506;4.472;2022-12-18T22:30:02;17.10;;;8.70;;
61460;SDS011;47325;50.506;4.472;2022-12-18T22:35:45;15.10;;;8.10;;
61460;SDS011;47325;50.506;4.472;2022-12-18T22:41:29;15.80;;;8.00;;
61460;SDS011;47325;50.506;4.472;2022-12-18T22:47:14;15.20;;;7.50;;
61460;SDS011;47325;50.506;4.472;2022-12-18T22:52:57;14.30;;;7.70;;
61460;SDS011;47325;50.506;4.472;2022-12-18T22:58:40;16.00;;;8.30;;
61460;SDS011;47325;50.506;4.472;2022-12-18T23:04:23;14.50;;;7.70;;
61460;SDS011;47325;50.506;4.472;2022-12-18T23:10:15;15.70;;;7.80;;
61460;SDS011;47325;50.506;4.472;2022-12-18T23:15:58;15.40;;;8.10;;
61460;SDS011;47325;50.506;4.472;2022-12-18T23:21:41;14.70;;;7.40;;
61460;SDS011;47325;50.506;4.472;2022-12-18T23:27:23;15.90;;;8.00;;
61460;SDS011;47325;50.506;4.472;2022-12-18T23:33:06;15.20;;;8.30;;
61460;SDS011;47325;50.506;4.472;2022-12-18T23:38:51;15.10;;;7.40;;
61460;SDS011;47325;50.506;4.472;2022-12-18T23:44:34;15.10;;;7.90;;
61460;SDS011;47325;50.506;4.472;2022-12-18T23:50:17;12.80;;;7.50;;
61460;SDS011;47325;50.506;4.472;2022-12-18T23:56:10;13.30;;;7.20;;
